Terminal Aerodrome Forecast
Issued by NWS

Home | Current Version | Previous Version | Text Only | Print | Product List | Glossary On
Versions: 1 2 3 4 5 6 7 8 9 10 11 12
890
FTPA31 PHFO 261120
TAFHMK
TAF
PHMK 261120Z 2612/2712 04007KT P6SM VCSH FEW025 FEW040
     FM262000 04013G22KT P6SM FEW025 BKN040
     FM270500 04009G15KT P6SM FEW025 SCT040
     FM270800 04006KT P6SM FEW025=

USA.gov is the U.S. government's official web portal to all federal, state and local government web resources and services.